Time;durP1;ratioP1;P1;durP2;ratioP2;P2;SDS_P1;SDS_P2;PMS_P1;PMS_P2;Temp;Humidity;BMP_temperature;BMP_pressure;BME280_temperature;BME280_humidity;BME280_pressure;Samples;Min_cycle;Max_cycle;Signal;HPM_P1;HPM_P2
2021/03/28 00:01:02;;;;;;;8.50;3.20;;;;;;;4.92;79.98;101414.65;3610540;80;25764;-87
2021/03/28 00:06:29;;;;;;;10.18;3.27;;;;;;;4.92;79.87;101420.69;3611493;80;98212;-88
2021/03/28 00:11:31;;;;;;;8.00;2.92;;;;;;;4.92;79.93;101432.38;3593084;80;26267;-90
2021/03/28 00:16:38;;;;;;;6.45;2.92;;;;;;;4.92;80.03;101428.29;3603870;80;98277;-89
2021/03/28 00:21:56;;;;;;;6.87;2.60;;;;;;;4.91;79.99;101428.05;3608427;80;25761;-89
2021/03/28 00:27:20;;;;;;;11.03;2.83;;;;;;;4.92;79.83;101435.69;3610382;79;98020;-89
2021/03/28 00:32:41;;;;;;;7.27;2.57;;;;;;;4.89;79.84;101434.39;3605251;80;98279;-88
2021/03/28 00:37:45;;;;;;;7.20;2.77;;;;;;;4.86;79.72;101439.09;3612988;80;25950;-88
2021/03/28 00:42:51;;;;;;;10.50;2.47;;;;;;;4.83;79.65;101439.74;3602522;80;97952;-88
2021/03/28 00:48:17;;;;;;;7.93;2.60;;;;;;;4.77;79.64;101441.00;3614982;80;25788;-91
2021/03/28 00:53:52;;;;;;;8.67;3.43;;;;;;;4.71;79.63;101446.34;3581433;80;98111;-88
2021/03/28 00:59:16;;;;;;;10.77;3.40;;;;;;;4.68;79.38;101446.14;3613614;80;25665;-89
2021/03/28 01:04:42;;;;;;;7.50;2.47;;;;;;;4.58;79.51;101460.85;3597106;80;98256;-92
2021/03/28 01:10:17;;;;;;;6.03;2.70;;;;;;;4.48;79.43;101463.83;3606556;80;25929;-91
2021/03/28 01:16:01;;;;;;;9.35;3.08;;;;;;;4.41;79.49;101460.75;3600214;80;97941;-88
2021/03/28 01:21:31;;;;;;;7.27;2.60;;;;;;;4.35;79.55;101461.99;3615513;80;26175;-89
2021/03/28 01:26:43;;;;;;;5.97;2.37;;;;;;;4.28;79.73;101466.27;3609594;80;98165;-89
2021/03/28 01:31:53;;;;;;;8.70;2.73;;;;;;;4.22;79.75;101466.96;3607046;80;33174;-88
2021/03/28 01:37:11;;;;;;;8.67;2.73;;;;;;;4.19;79.91;101466.75;3606986;80;98184;-88
2021/03/28 01:42:38;;;;;;;6.90;2.80;;;;;;;4.16;80.26;101472.84;3609614;80;25837;-87
2021/03/28 01:48:07;;;;;;;8.30;3.30;;;;;;;4.07;80.33;101481.48;3617372;80;25800;-88
2021/03/28 01:53:37;;;;;;;12.10;3.08;;;;;;;4.01;80.63;101479.99;3605595;80;98292;-89
2021/03/28 01:58:49;;;;;;;13.83;3.50;;;;;;;3.91;80.61;101482.41;3574048;80;25752;-89
2021/03/28 02:04:21;;;;;;;7.33;2.63;;;;;;;3.86;80.71;101492.05;3602388;80;98496;-87
2021/03/28 02:09:54;;;;;;;8.67;2.97;;;;;;;3.76;80.88;101484.09;3612434;80;25888;-88
2021/03/28 02:15:26;;;;;;;7.57;2.33;;;;;;;3.66;81.09;101484.31;3606670;80;98258;-88
2021/03/28 02:20:41;;;;;;;7.97;2.77;;;;;;;3.58;81.32;101489.12;3604493;80;26756;-88
2021/03/28 02:26:08;;;;;;;7.43;2.87;;;;;;;3.48;81.58;101499.41;3595773;80;98038;-87
2021/03/28 02:31:24;;;;;;;7.77;2.83;;;;;;;3.40;81.62;101509.11;3615910;80;26024;-89
2021/03/28 02:36:41;;;;;;;12.93;2.90;;;;;;;3.33;81.74;101511.41;3608517;80;97802;-89
2021/03/28 02:42:11;;;;;;;10.70;3.43;;;;;;;3.26;81.98;101513.73;3589868;80;33636;-88
2021/03/28 02:47:38;;;;;;;8.37;3.80;;;;;;;3.22;82.04;101527.68;3594572;80;98013;-86
2021/03/28 02:53:13;;;;;;;7.90;2.98;;;;;;;3.13;82.42;101521.89;3607869;80;98107;-88
2021/03/28 02:58:43;;;;;;;8.63;3.27;;;;;;;3.07;82.46;101523.88;3612174;80;33225;-88
2021/03/28 03:04:18;;;;;;;9.78;2.87;;;;;;;3.02;82.58;101542.22;3604484;80;97850;-88
2021/03/28 03:09:50;;;;;;;5.83;2.93;;;;;;;2.92;82.99;101541.04;3619646;80;31044;-87
2021/03/28 03:15:11;;;;;;;9.25;3.22;;;;;;;2.84;83.10;101549.32;3601678;80;98306;-88
2021/03/28 03:20:45;;;;;;;8.57;4.10;;;;;;;2.80;82.98;101552.95;3621082;80;26043;-87
2021/03/28 03:26:29;;;;;;;7.70;3.33;;;;;;;2.77;83.17;101554.34;3601137;80;98058;-87
2021/03/28 03:32:10;;;;;;;9.23;3.30;;;;;;;2.78;83.52;101560.61;3612832;80;25878;-88
2021/03/28 03:37:52;;;;;;;11.07;3.43;;;;;;;2.75;83.63;101567.44;3609985;80;99782;-88
2021/03/28 03:43:39;;;;;;;6.08;2.65;;;;;;;2.77;83.89;101572.02;3606244;80;98526;-88
2021/03/28 03:49:18;;;;;;;8.10;3.35;;;;;;;2.79;84.02;101574.45;3608582;80;26164;-88
2021/03/28 03:54:31;;;;;;;9.73;3.67;;;;;;;2.81;84.23;101574.95;3608036;80;98265;-88
2021/03/28 04:00:09;;;;;;;9.67;3.50;;;;;;;2.83;84.14;101591.21;3609954;80;26053;-86
2021/03/28 04:05:39;;;;;;;9.70;3.80;;;;;;;2.82;84.21;101584.71;3612301;80;98060;-88
2021/03/28 04:11:09;;;;;;;10.93;3.70;;;;;;;2.83;84.40;101589.85;3607376;80;25851;-88
2021/03/28 04:16:31;;;;;;;10.40;3.53;;;;;;;2.81;84.43;101602.95;3606943;80;98260;-88
2021/03/28 04:22:09;;;;;;;9.87;3.80;;;;;;;2.80;84.34;101603.23;3612353;80;25887;-87
2021/03/28 04:27:31;;;;;;;;;;;;;;;2.75;84.22;101605.50;3612386;80;97709;-87
2021/03/28 04:32:54;;;;;;;11.77;3.80;;;;;;;2.71;84.71;101615.34;3606674;80;84830;-88
2021/03/28 04:38:18;;;;;;;9.37;3.30;;;;;;;2.62;84.43;101622.53;3558149;80;33143;-87
2021/03/28 04:43:54;;;;;;;9.33;3.27;;;;;;;2.54;84.54;101620.50;3607234;80;98262;-87
2021/03/28 04:49:27;;;;;;;11.30;3.10;;;;;;;2.50;84.70;101630.34;3609754;80;25619;-88
2021/03/28 04:55:00;;;;;;;11.17;4.13;;;;;;;2.44;84.58;101626.62;3622180;79;98617;-87
2021/03/28 05:00:44;;;;;;;12.67;5.03;;;;;;;2.38;85.16;101637.30;3615611;80;25784;-88
2021/03/28 05:06:10;;;;;;;11.03;4.28;;;;;;;2.34;85.38;101650.67;3566302;80;97902;-87
2021/03/28 05:11:48;;;;;;;14.80;4.60;;;;;;;2.35;85.66;101646.05;3614182;80;33354;-88
2021/03/28 05:17:34;;;;;;;12.40;4.85;;;;;;;2.39;85.98;101660.11;3610290;80;98190;-87
2021/03/28 05:23:09;;;;;;;10.05;4.28;;;;;;;2.45;85.88;101667.09;3594382;80;98098;-89
2021/03/28 05:28:45;;;;;;;9.23;4.50;;;;;;;2.55;86.08;101679.17;3615186;80;25942;-89
2021/03/28 05:34:07;;;;;;;11.97;4.53;;;;;;;2.63;86.19;101689.95;3616151;80;97624;-89
2021/03/28 05:39:53;;;;;;;10.90;4.57;;;;;;;2.70;86.39;101681.69;3617005;80;26323;-90
2021/03/28 05:45:48;;;;;;;11.73;4.17;;;;;;;2.80;86.26;101695.67;3607739;80;98394;-89
2021/03/28 05:51:02;;;;;;;11.33;4.87;;;;;;;2.88;86.27;101702.61;3613659;80;25664;-89
2021/03/28 05:56:40;;;;;;;11.97;4.10;;;;;;;2.99;86.03;101708.69;3609525;80;98623;-89
2021/03/28 06:02:10;;;;;;;10.07;3.70;;;;;;;3.09;85.79;101720.77;3609839;80;26398;-92
2021/03/28 06:07:39;;;;;;;26.30;5.63;;;;;;;3.17;85.59;101724.20;3605397;80;98126;-88
2021/03/28 06:13:26;;;;;;;12.50;4.43;;;;;;;3.21;85.37;101723.30;3588609;80;98501;-88
2021/03/28 06:18:44;;;;;;;9.83;3.65;;;;;;;3.26;85.15;101729.20;3612970;80;25965;-89
2021/03/28 06:24:24;;;;;;;10.63;3.83;;;;;;;3.28;85.24;101736.53;3604697;80;98140;-88
2021/03/28 06:30:04;;;;;;;11.87;4.60;;;;;;;3.38;85.14;101741.25;3611113;80;25811;-91
2021/03/28 06:35:19;;;;;;;14.87;4.57;;;;;;;3.43;84.93;101744.42;3607305;79;97941;-87
2021/03/28 06:41:00;;;;;;;12.50;4.30;;;;;;;3.59;84.82;101749.87;3611741;80;26188;-88
2021/03/28 06:46:58;;;;;;;10.38;4.20;;;;;;;3.66;84.50;101747.59;3619002;80;97969;-90
2021/03/28 06:52:31;;;;;;;10.05;4.00;;;;;;;3.76;84.48;101757.73;3625853;80;25744;-89
2021/03/28 06:58:17;;;;;;;12.07;4.37;;;;;;;3.88;84.33;101764.07;3605986;80;25958;-88
2021/03/28 07:03:45;;;;;;;13.57;4.33;;;;;;;3.99;84.27;101758.13;3603401;80;98529;-87
2021/03/28 07:09:13;;;;;;;12.40;4.87;;;;;;;4.17;84.04;101761.34;3602221;80;34090;-89
2021/03/28 07:14:29;;;;;;;;;;;;;;;4.31;83.87;101760.77;3616510;80;98159;-87
2021/03/28 07:20:17;;;;;;;14.27;4.83;;;;;;;4.42;83.88;101760.81;3599186;80;25953;-86
2021/03/28 07:25:38;;;;;;;15.90;5.42;;;;;;;4.56;83.47;101762.98;3602790;80;98316;-86
2021/03/28 07:31:00;;;;;;;14.83;5.20;;;;;;;4.76;83.24;101761.75;3612562;80;25788;-86
2021/03/28 07:36:39;;;;;;;12.13;5.17;;;;;;;4.97;83.33;101756.89;3602242;80;98287;-85
2021/03/28 07:42:13;;;;;;;14.40;6.03;;;;;;;5.14;82.68;101752.15;3610890;80;26063;-85
2021/03/28 07:47:50;;;;;;;14.90;4.60;;;;;;;5.39;82.02;101759.72;3579260;80;98108;-87
2021/03/28 07:53:06;;;;;;;;;;;;;;;5.61;81.55;101761.89;3596982;80;98415;-85
2021/03/28 07:58:22;;;;;;;13.10;4.53;;;;;;;5.82;80.16;101758.11;3583817;80;26213;-88
2021/03/28 08:04:04;;;;;;;15.15;4.97;;;;;;;5.98;80.59;101752.48;3615100;80;97884;-85
2021/03/28 08:09:42;;;;;;;14.83;4.37;;;;;;;6.13;79.88;101750.17;3607033;80;25761;-87
2021/03/28 08:15:33;;;;;;;12.73;4.28;;;;;;;6.41;80.18;101754.84;3607538;80;98874;-88
2021/03/28 08:21:20;;;;;;;12.77;4.60;;;;;;;6.69;79.23;101745.25;3609494;80;25941;-89
2021/03/28 08:26:29;;;;;;;13.97;3.80;;;;;;;6.90;78.22;101748.45;3615927;80;98129;-89
2021/03/28 08:31:50;;;;;;;17.63;4.90;;;;;;;7.04;77.81;101744.19;3612471;80;26019;-88
2021/03/28 08:37:37;;;;;;;10.32;4.08;;;;;;;7.32;77.31;101744.89;3604914;80;98312;-88
2021/03/28 08:43:07;;;;;;;16.12;4.45;;;;;;;7.57;76.12;101745.44;3604957;79;98848;-85
2021/03/28 08:48:34;;;;;;;14.90;4.47;;;;;;;7.78;75.60;101753.22;3579126;80;25846;-87
2021/03/28 08:54:11;;;;;;;15.68;3.45;;;;;;;8.08;74.50;101749.98;3604134;80;98465;-90
2021/03/28 08:59:19;;;;;;;;;;;;;;;8.37;74.81;101757.72;3613169;80;25958;-94
2021/03/28 09:04:47;;;;;;;11.80;3.50;;;;;;;8.77;71.37;101756.78;3614842;80;84840;-93
2021/03/28 09:10:32;;;;;;;14.37;3.10;;;;;;;9.25;70.91;101759.24;3610130;80;25918;-90
2021/03/28 09:15:47;;;;;;;15.93;4.70;;;;;;;9.71;70.77;101752.67;3608028;79;98442;-89
2021/03/28 09:21:12;;;;;;;15.38;3.70;;;;;;;10.14;66.53;101757.17;3620572;80;26112;-89
2021/03/28 09:26:45;;;;;;;14.20;3.23;;;;;;;10.20;65.53;101764.05;3595191;80;98654;-88
2021/03/28 09:32:13;;;;;;;15.43;3.30;;;;;;;10.39;65.99;101765.66;3605684;80;26101;-89
2021/03/28 09:37:53;;;;;;;14.93;3.73;;;;;;;10.64;65.81;101766.69;3602544;80;98466;-88
2021/03/28 09:43:20;;;;;;;10.37;2.90;;;;;;;10.95;64.92;101770.24;3583664;80;99143;-89
2021/03/28 09:48:39;;;;;;;15.57;3.03;;;;;;;10.91;62.51;101766.56;3617894;80;25881;-89
2021/03/28 09:54:17;;;;;;;17.10;3.30;;;;;;;11.01;63.60;101766.09;3611268;80;98723;-87
2021/03/28 10:00:01;;;;;;;10.17;2.93;;;;;;;11.04;62.92;101775.03;3598443;80;25936;-91
2021/03/28 10:05:14;;;;;;;12.00;3.12;;;;;;;11.03;61.39;101778.94;3574043;80;98686;-89
2021/03/28 10:10:43;;;;;;;14.53;2.20;;;;;;;10.76;58.71;101771.39;3578457;80;25949;-89
2021/03/28 10:16:15;;;;;;;11.03;2.90;;;;;;;10.67;59.12;101770.70;3573316;80;98512;-94
2021/03/28 10:21:43;;;;;;;10.43;2.55;;;;;;;10.99;58.86;101771.12;3581491;81;26069;-87
2021/03/28 10:26:52;;;;;;;13.67;2.90;;;;;;;11.25;56.46;101781.19;3579466;80;98879;-94
2021/03/28 10:32:32;;;;;;;11.33;3.10;;;;;;;10.97;56.11;101783.87;3586843;80;26814;-89
2021/03/28 10:37:59;;;;;;;16.23;3.33;;;;;;;11.02;56.21;101781.47;3592905;80;25927;-93
2021/03/28 10:43:12;;;;;;;;;;;;;;;11.21;55.26;101773.38;3576404;80;98779;-86
2021/03/28 10:48:52;;;;;;;10.78;2.58;;;;;;;11.26;53.72;101773.14;3581635;80;25975;-90
2021/03/28 10:54:34;;;;;;;13.30;2.80;;;;;;;11.15;55.64;101772.83;3574160;80;98873;-88
2021/03/28 10:59:55;;;;;;;14.63;2.93;;;;;;;11.35;55.59;101764.95;3587979;80;26198;-91
2021/03/28 11:05:36;;;;;;;13.00;2.20;;;;;;;11.49;53.55;101768.69;3574827;80;98801;-94
2021/03/28 11:10:45;;;;;;;13.25;3.45;;;;;;;11.48;54.33;101764.33;3513749;82;25969;-91
2021/03/28 11:16:07;;;;;;;16.42;3.37;;;;;;;11.49;54.26;101762.61;3454612;83;98563;-85
2021/03/28 11:21:38;;;;;;;11.77;2.57;;;;;;;11.53;52.03;101775.11;3463329;83;26285;-90
2021/03/28 11:26:50;;;;;;;12.77;3.30;;;;;;;11.45;54.04;101777.45;3457992;83;98810;-89
2021/03/28 11:32:19;;;;;;;12.20;2.60;;;;;;;11.35;53.54;101774.59;3417446;83;25826;-92
2021/03/28 11:37:52;;;;;;;13.07;2.83;;;;;;;11.47;52.41;101769.06;3469466;83;26146;-89
2021/03/28 11:43:05;;;;;;;9.50;2.58;;;;;;;11.56;52.36;101766.15;3430427;83;98725;-90
2021/03/28 11:48:38;;;;;;;13.03;3.70;;;;;;;11.59;51.34;101762.14;3457502;83;26329;-92
2021/03/28 11:53:42;;;;;;;9.97;3.13;;;;;;;11.55;51.99;101766.72;3456810;83;98538;-89
2021/03/28 11:58:54;;;;;;;9.93;2.50;;;;;;;11.62;51.96;101761.42;3473712;81;25886;-90
2021/03/28 12:04:00;;;;;;;12.40;3.80;;;;;;;11.75;51.17;101765.75;3450240;83;98618;-87
2021/03/28 12:09:04;;;;;;;13.68;2.90;;;;;;;11.74;51.12;101768.28;3442611;84;26112;-91
2021/03/28 12:14:28;;;;;;;9.37;2.63;;;;;;;11.70;51.72;101755.53;3444730;83;98801;-92
2021/03/28 12:19:35;;;;;;;18.77;4.10;;;;;;;11.82;51.44;101761.80;3448883;84;26141;-90
2021/03/28 12:24:37;;;;;;;15.03;3.80;;;;;;;11.75;51.58;101747.81;3466810;82;98781;-90
2021/03/28 12:29:40;;;;;;;14.30;3.07;;;;;;;11.78;51.00;101750.45;3455157;84;25876;-92
2021/03/28 12:34:46;;;;;;;11.40;2.90;;;;;;;11.79;50.69;101743.77;3425580;84;98884;-88
2021/03/28 12:40:01;;;;;;;10.43;2.60;;;;;;;11.68;50.43;101744.88;3450018;84;26001;-91
2021/03/28 12:45:11;;;;;;;11.00;2.75;;;;;;;11.79;50.44;101747.91;3445668;84;98789;-91
2021/03/28 12:50:17;;;;;;;12.27;3.07;;;;;;;11.84;50.37;101748.44;3451893;83;25974;-94
2021/03/28 12:55:52;;;;;;;8.15;2.20;;;;;;;11.86;47.38;101740.62;3431444;84;98541;-91
2021/03/28 13:01:00;;;;;;;10.60;2.37;;;;;;;11.72;49.49;101739.45;3452735;84;25836;-92
2021/03/28 13:06:35;;;;;;;7.72;2.40;;;;;;;11.79;49.25;101728.60;3465897;82;98404;-92
2021/03/28 13:11:44;;;;;;;10.75;2.80;;;;;;;11.87;48.33;101726.23;3471152;83;25989;-93
2021/03/28 13:17:05;;;;;;;12.25;2.85;;;;;;;11.94;48.57;101723.09;3474142;83;97622;-90
2021/03/28 13:22:27;;;;;;;11.20;2.93;;;;;;;12.08;49.13;101719.33;3467650;83;25884;-88
2021/03/28 13:27:28;;;;;;;11.00;2.73;;;;;;;12.04;48.09;101715.67;3468785;83;26286;-86
2021/03/28 13:32:34;;;;;;;11.23;2.80;;;;;;;12.02;48.11;101708.91;3460307;83;98948;-88
2021/03/28 13:37:50;;;;;;;12.13;3.10;;;;;;;11.97;48.42;101714.69;3459650;83;25798;-90
2021/03/28 13:42:58;;;;;;;8.13;2.75;;;;;;;12.04;47.20;101717.65;3581890;79;98808;-85
2021/03/28 13:48:16;;;;;;;12.47;3.90;;;;;;;11.92;47.63;101714.95;3588846;80;25792;-88
2021/03/28 13:53:31;;;;;;;11.87;3.13;;;;;;;11.80;47.40;101707.56;3578428;80;98610;-88
2021/03/28 13:58:37;;;;;;;10.50;2.50;;;;;;;11.80;47.84;101708.13;3591976;80;25710;-87
2021/03/28 14:03:39;;;;;;;9.85;2.80;;;;;;;11.73;47.47;101707.36;3592892;80;98804;-93
2021/03/28 14:08:41;;;;;;;13.30;4.77;;;;;;;11.77;47.74;101710.23;3611236;80;28539;-88
2021/03/28 14:13:44;;;;;;;10.05;2.62;;;;;;;11.66;47.30;101693.98;3599268;80;98806;-87
2021/03/28 14:18:53;;;;;;;11.17;3.60;;;;;;;11.69;47.63;101703.72;3605319;80;25786;-90
2021/03/28 14:24:21;;;;;;;11.43;3.20;;;;;;;11.72;46.87;101685.08;3597651;80;98620;-86
2021/03/28 14:29:43;;;;;;;13.28;4.22;;;;;;;11.65;47.59;101684.08;3620686;80;25854;-92
2021/03/28 14:35:18;;;;;;;11.08;3.00;;;;;;;11.64;46.80;101685.23;3616777;80;98568;-90
2021/03/28 14:40:44;;;;;;;13.20;4.45;;;;;;;11.63;46.58;101673.99;3603286;80;26450;-91
2021/03/28 14:46:14;;;;;;;10.03;2.90;;;;;;;11.60;46.82;101670.55;3598812;80;98781;-87
2021/03/28 14:51:25;;;;;;;16.10;3.60;;;;;;;11.63;47.77;101665.72;3617353;80;25659;-86
2021/03/28 14:56:46;;;;;;;12.00;4.00;;;;;;;11.66;47.02;101657.53;3600298;80;98978;-89
2021/03/28 15:02:26;;;;;;;11.10;2.90;;;;;;;11.56;47.23;101665.52;3601895;80;25667;-87
2021/03/28 15:07:35;;;;;;;8.97;2.73;;;;;;;11.42;46.67;101663.17;3563692;80;25940;-87
2021/03/28 15:12:50;;;;;;;14.07;3.53;;;;;;;11.34;47.59;101664.71;3596349;80;98635;-88
2021/03/28 15:18:08;;;;;;;11.55;3.08;;;;;;;11.34;47.56;101663.33;3614016;79;26208;-90
2021/03/28 15:23:23;;;;;;;13.93;3.63;;;;;;;11.35;47.83;101651.93;3596044;80;99012;-95
2021/03/28 15:28:28;;;;;;;13.77;3.20;;;;;;;11.36;46.58;101642.53;3612640;80;26018;-87
2021/03/28 15:33:49;;;;;;;44.17;11.30;;;;;;;11.36;47.25;101644.48;3578004;80;98776;-89
2021/03/28 15:39:08;;;;;;;13.10;3.50;;;;;;;11.31;46.57;101637.84;3612398;80;25992;-88
2021/03/28 15:44:33;;;;;;;12.35;3.47;;;;;;;11.23;47.31;101634.68;3611261;80;98905;-87
2021/03/28 15:49:48;;;;;;;27.37;7.10;;;;;;;11.20;47.87;101633.43;3610022;80;25662;-90
2021/03/28 15:55:33;;;;;;;18.07;5.35;;;;;;;11.19;47.51;101634.59;3620143;80;98483;-86
2021/03/28 16:01:09;;;;;;;15.07;4.63;;;;;;;11.09;47.58;101639.78;3603952;80;26033;-90
2021/03/28 16:06:47;;;;;;;30.40;7.63;;;;;;;10.96;47.26;101639.62;3587803;80;98327;-89
2021/03/28 16:12:12;;;;;;;22.03;5.50;;;;;;;10.84;47.53;101634.94;3617220;80;26277;-89
2021/03/28 16:17:24;;;;;;;16.87;5.23;;;;;;;10.77;47.50;101638.88;3599196;80;98108;-88
2021/03/28 16:22:54;;;;;;;17.17;4.50;;;;;;;10.76;47.53;101640.59;3604994;80;98468;-88
2021/03/28 16:28:00;;;;;;;14.87;3.57;;;;;;;10.73;47.91;101631.64;3612961;80;25838;-89
2021/03/28 16:33:42;;;;;;;19.12;5.47;;;;;;;10.64;48.42;101620.77;3612198;80;98604;-87
2021/03/28 16:39:16;;;;;;;13.33;4.77;;;;;;;10.57;48.20;101618.41;3613467;80;25859;-86
2021/03/28 16:45:02;;;;;;;15.87;5.43;;;;;;;10.51;48.66;101623.89;3603868;80;98778;-88
2021/03/28 16:50:27;;;;;;;18.43;5.13;;;;;;;10.43;49.13;101626.22;3602744;80;25813;-87
2021/03/28 16:55:32;;;;;;;13.53;4.37;;;;;;;10.33;49.41;101620.63;3608070;80;98878;-87
2021/03/28 17:00:37;;;;;;;14.80;5.33;;;;;;;10.24;49.59;101619.16;3612322;80;25980;-85
2021/03/28 17:05:39;;;;;;;15.87;5.67;;;;;;;10.17;49.89;101617.53;3558528;80;98625;-87
2021/03/28 17:10:54;;;;;;;23.60;7.33;;;;;;;10.08;50.36;101619.63;3533554;81;25919;-88
2021/03/28 17:16:16;;;;;;;18.55;6.12;;;;;;;9.97;50.57;101620.61;3549645;80;98858;-86
2021/03/28 17:21:38;;;;;;;16.53;6.93;;;;;;;9.88;51.10;101625.41;3558060;81;25694;-87
2021/03/28 17:27:02;;;;;;;18.35;7.05;;;;;;;9.77;51.54;101632.50;3545945;80;98060;-86
2021/03/28 17:32:32;;;;;;;21.20;8.57;;;;;;;9.64;51.63;101643.27;3556339;81;25741;-86
2021/03/28 17:37:39;;;;;;;23.67;11.13;;;;;;;9.50;52.14;101640.05;3552194;81;26426;-87
2021/03/28 17:42:43;;;;;;;27.42;12.13;;;;;;;9.37;52.45;101643.11;3559387;80;98301;-86
2021/03/28 17:47:54;;;;;;;34.57;15.13;;;;;;;9.27;52.77;101636.08;3554101;81;31383;-87
2021/03/28 17:53:20;;;;;;;31.17;13.28;;;;;;;9.18;53.16;101642.25;3552895;80;99031;-88
2021/03/28 17:58:43;;;;;;;22.50;10.60;;;;;;;9.07;53.35;101638.31;3553590;81;25695;-89
2021/03/28 18:03:46;;;;;;;29.27;12.88;;;;;;;9.00;53.61;101643.53;3570570;80;98338;-90
2021/03/28 18:08:48;;;;;;;38.23;15.97;;;;;;;8.95;53.91;101643.73;3614578;80;25849;-89
2021/03/28 18:13:53;;;;;;;33.23;14.67;;;;;;;8.91;54.03;101642.00;3525589;81;98882;-86
2021/03/28 18:18:59;;;;;;;27.97;10.53;;;;;;;8.89;54.15;101641.55;3514642;82;26034;-85
2021/03/28 18:24:06;;;;;;;31.77;12.40;;;;;;;8.86;54.44;101649.89;3481797;82;98385;-86
2021/03/28 18:29:25;;;;;;;27.57;10.80;;;;;;;8.85;54.68;101655.15;3532650;82;25739;-87
2021/03/28 18:34:40;;;;;;;29.82;10.48;;;;;;;8.84;54.82;101655.48;3534813;81;99015;-88
2021/03/28 18:39:51;;;;;;;25.40;10.03;;;;;;;8.84;55.03;101660.97;3612477;80;26049;-87
2021/03/28 18:44:54;;;;;;;31.57;11.70;;;;;;;8.82;55.17;101657.17;3573322;79;98397;-85
2021/03/28 18:49:56;;;;;;;40.40;15.67;;;;;;;8.83;55.40;101659.37;3608655;80;25954;-88
2021/03/28 18:55:11;;;;;;;35.45;13.25;;;;;;;8.82;55.71;101665.41;3604261;80;98759;-88
2021/03/28 19:00:29;;;;;;;27.53;12.13;;;;;;;8.81;55.96;101658.33;3614554;80;25828;-87
2021/03/28 19:05:38;;;;;;;31.53;12.30;;;;;;;8.80;56.21;101664.95;3532251;82;98738;-86
2021/03/28 19:10:41;;;;;;;28.73;12.37;;;;;;;8.80;56.46;101668.26;3532614;82;25762;-89
2021/03/28 19:15:42;;;;;;;31.37;13.90;;;;;;;8.79;56.64;101665.28;3532758;82;98334;-86
2021/03/28 19:20:51;;;;;;;34.33;14.67;;;;;;;8.77;57.00;101669.73;3540112;82;26025;-88
2021/03/28 19:25:53;;;;;;;31.33;13.57;;;;;;;8.75;57.01;101676.69;3541928;81;98164;-88
2021/03/28 19:30:58;;;;;;;36.33;13.83;;;;;;;8.73;57.28;101672.11;3538245;82;25997;-87
2021/03/28 19:36:03;;;;;;;33.23;13.35;;;;;;;8.71;57.51;101672.44;3541443;81;98496;-88
2021/03/28 19:41:12;;;;;;;30.53;13.53;;;;;;;8.69;57.62;101673.91;3543899;82;26063;-89
2021/03/28 19:51:39;;;;;;;35.15;15.55;;;;;;;8.62;58.13;101667.58;3548027;82;25868;-88
2021/03/28 19:56:48;;;;;;;31.42;12.60;;;;;;;8.57;58.27;101681.48;3537437;81;98440;-87
2021/03/28 20:01:51;;;;;;;32.23;11.20;;;;;;;8.54;58.62;101681.36;3545966;82;26195;-89
2021/03/28 20:06:52;;;;;;;26.33;10.50;;;;;;;8.49;58.76;101676.88;3597512;80;98310;-87
2021/03/28 20:11:57;;;;;;;21.00;8.83;;;;;;;8.47;58.88;101673.67;3608515;80;33153;-90
2021/03/28 20:16:58;;;;;;;21.70;8.10;;;;;;;8.46;59.19;101669.30;3601367;80;99908;-89
2021/03/28 20:22:11;;;;;;;21.33;8.77;;;;;;;8.44;59.21;101670.20;3615330;80;26825;-88
2021/03/28 20:27:21;;;;;;;16.27;7.28;;;;;;;8.43;59.39;101668.61;3606927;80;98023;-88
2021/03/28 20:32:25;;;;;;;19.70;7.77;;;;;;;8.42;59.41;101662.07;3609466;80;98263;-87
2021/03/28 20:37:34;;;;;;;18.30;7.50;;;;;;;8.41;59.68;101667.33;3614566;80;26110;-88
2021/03/28 20:42:36;;;;;;;21.03;8.50;;;;;;;8.38;59.72;101665.23;3612052;80;98192;-87
2021/03/28 20:47:44;;;;;;;20.77;6.67;;;;;;;8.38;59.93;101665.23;3610510;80;25942;-89
2021/03/28 20:52:49;;;;;;;17.90;7.00;;;;;;;8.37;60.01;101669.94;3606917;80;98155;-86
2021/03/28 20:57:55;;;;;;;17.47;6.97;;;;;;;8.37;60.26;101674.05;3614331;80;26142;-87
2021/03/28 21:03:06;;;;;;;18.37;6.70;;;;;;;8.39;60.56;101674.52;3607049;80;98347;-87
2021/03/28 21:08:12;;;;;;;22.17;7.45;;;;;;;8.43;60.61;101671.91;3539867;82;25678;-86
2021/03/28 21:13:16;;;;;;;22.00;7.35;;;;;;;8.47;60.80;101672.86;3538343;81;98361;-89
2021/03/28 21:18:19;;;;;;;18.47;6.50;;;;;;;8.50;60.97;101677.69;3542364;82;25802;-88
2021/03/28 21:23:22;;;;;;;21.87;7.63;;;;;;;8.50;61.14;101677.69;3535835;81;98442;-88
2021/03/28 21:28:25;;;;;;;18.67;6.90;;;;;;;8.48;61.47;101678.02;3545276;82;25825;-89
2021/03/28 21:33:28;;;;;;;20.67;7.07;;;;;;;8.46;61.60;101673.41;3534861;82;98392;-89
2021/03/28 21:38:31;;;;;;;22.27;8.07;;;;;;;8.43;61.81;101677.39;3540260;82;26018;-91
2021/03/28 21:43:44;;;;;;;22.37;7.60;;;;;;;8.39;62.24;101675.10;3532325;81;98362;-90
2021/03/28 21:48:53;;;;;;;23.67;8.57;;;;;;;8.35;62.25;101672.19;3546967;82;26174;-91
2021/03/28 21:53:53;;;;;;;24.23;9.37;;;;;;;8.35;62.34;101669.45;3533977;81;98578;-91
2021/03/28 21:58:53;;;;;;;23.37;9.03;;;;;;;8.32;62.61;101672.05;3543871;82;33576;-90
2021/03/28 22:03:54;;;;;;;22.27;8.57;;;;;;;8.30;62.91;101674.34;3536889;81;98225;-90
2021/03/28 22:08:56;;;;;;;20.35;7.97;;;;;;;8.27;63.15;101675.80;3564035;81;33225;-89
2021/03/28 22:13:57;;;;;;;20.20;8.10;;;;;;;8.27;63.49;101679.91;3552910;80;98491;-87
2021/03/28 22:18:58;;;;;;;22.47;8.27;;;;;;;8.25;63.83;101680.83;3560225;81;33207;-90
2021/03/28 22:24:00;;;;;;;21.53;8.03;;;;;;;8.25;64.20;101674.52;3556819;80;98798;-87
2021/03/28 22:29:08;;;;;;;22.43;8.40;;;;;;;8.22;64.70;101675.98;3536632;81;33292;-87
2021/03/28 22:34:09;;;;;;;19.83;7.57;;;;;;;8.20;64.94;101679.64;3550943;80;98495;-86
2021/03/28 22:39:12;;;;;;;19.07;7.43;;;;;;;8.20;65.26;101681.02;3558744;81;33923;-89
2021/03/28 22:44:20;;;;;;;18.30;7.07;;;;;;;8.21;65.52;101674.94;3544137;80;99097;-88
2021/03/28 22:49:23;;;;;;;18.77;6.87;;;;;;;8.23;65.45;101678.17;3556855;81;26023;-89
2021/03/28 22:54:25;;;;;;;19.13;7.77;;;;;;;8.27;65.53;101678.55;3557976;80;98754;-91
2021/03/28 22:59:30;;;;;;;20.67;7.33;;;;;;;8.30;65.96;101681.19;3553757;81;26128;-89
2021/03/28 23:04:31;;;;;;;17.20;6.70;;;;;;;8.33;66.10;101673.66;3548823;80;98803;-89
2021/03/28 23:09:32;;;;;;;17.40;7.17;;;;;;;8.35;66.55;101678.27;3601475;80;34117;-88
2021/03/28 23:14:33;;;;;;;21.20;7.17;;;;;;;8.36;66.69;101680.68;3594681;80;98805;-88
2021/03/28 23:19:43;;;;;;;20.10;7.30;;;;;;;8.35;67.03;101681.00;3603148;80;33146;-96
2021/03/28 23:24:45;;;;;;;19.10;7.97;;;;;;;8.32;67.78;101678.91;3604269;80;98419;-87
2021/03/28 23:29:45;;;;;;;20.17;8.27;;;;;;;8.24;67.72;101657.84;3612839;80;25881;-88
2021/03/28 23:34:46;;;;;;;18.40;6.65;;;;;;;8.20;68.16;101659.63;3605953;80;98515;-88
2021/03/28 23:39:47;;;;;;;16.50;6.27;;;;;;;8.14;68.53;101654.88;3618176;80;33635;-88
2021/03/28 23:44:51;;;;;;;21.83;7.10;;;;;;;8.18;68.85;101661.88;3612226;80;98541;-88
2021/03/28 23:50:03;;;;;;;16.77;6.77;;;;;;;8.23;69.00;101654.86;3615533;80;25924;-88
2021/03/28 23:55:07;;;;;;;17.85;6.47;;;;;;;8.31;69.00;101658.11;3609667;80;98637;-87
